createdAt,value
2023-02-20T00:01:31.269Z,6.70
2023-02-20T00:03:57.849Z,11.13
2023-02-20T00:06:24.502Z,6.85
2023-02-20T00:08:51.266Z,9.80
2023-02-20T00:11:18.029Z,10.60
2023-02-20T00:13:48.948Z,12.65
2023-02-20T00:16:16.229Z,10.10
2023-02-20T00:18:43.755Z,10.13
2023-02-20T00:21:10.337Z,11.60
2023-02-20T00:23:36.955Z,4.97
2023-02-20T00:26:03.706Z,9.60
2023-02-20T00:28:30.285Z,11.63
2023-02-20T00:30:56.987Z,11.07
2023-02-20T00:33:23.791Z,12.25
2023-02-20T00:35:50.571Z,11.32
2023-02-20T00:38:17.251Z,11.80
2023-02-20T00:40:43.816Z,13.38
2023-02-20T00:43:10.424Z,13.70
2023-02-20T00:45:36.997Z,10.73
2023-02-20T00:48:03.912Z,11.32
2023-02-20T00:50:30.510Z,11.07
2023-02-20T00:52:57.113Z,11.50
2023-02-20T00:55:23.730Z,11.77
2023-02-20T00:57:50.305Z,10.48
2023-02-20T01:00:21.320Z,12.30
2023-02-20T01:02:48.311Z,10.60
2023-02-20T01:05:14.943Z,11.65
2023-02-20T01:07:41.600Z,11.30
2023-02-20T01:10:09.437Z,9.52
2023-02-20T01:12:36.072Z,12.13
2023-02-20T01:15:02.798Z,9.23
2023-02-20T01:17:29.697Z,10.95
2023-02-20T01:19:56.383Z,14.25
2023-02-20T01:22:23.209Z,11.02
2023-02-20T01:24:50.226Z,11.10
2023-02-20T01:27:16.938Z,12.25
2023-02-20T01:29:43.530Z,12.27
2023-02-20T01:32:12.173Z,12.68
2023-02-20T01:34:39.280Z,13.52
2023-02-20T01:37:06.358Z,14.88
2023-02-20T01:39:32.971Z,17.38
2023-02-20T01:42:02.260Z,14.50
2023-02-20T01:44:32.411Z,16.23
2023-02-20T01:47:00.215Z,17.17
2023-02-20T01:49:32.370Z,15.50
2023-02-20T01:52:23.667Z,15.70
2023-02-20T01:54:59.362Z,17.63
2023-02-20T01:57:30.054Z,19.33
2023-02-20T02:00:10.089Z,19.13
2023-02-20T02:02:40.432Z,17.55
2023-02-20T02:05:09.399Z,19.10
2023-02-20T02:07:36.696Z,15.65
2023-02-20T02:10:09.425Z,18.88
2023-02-20T02:12:36.984Z,19.23
2023-02-20T02:15:09.494Z,19.27
2023-02-20T02:18:02.877Z,22.00
2023-02-20T02:21:04.036Z,18.52
2023-02-20T02:23:33.445Z,18.83
2023-02-20T02:26:11.812Z,20.17
2023-02-20T02:29:11.987Z,15.70
2023-02-20T02:32:15.685Z,16.75
2023-02-20T02:35:00.930Z,18.60
2023-02-20T02:37:39.729Z,19.90
2023-02-20T02:43:15.456Z,15.68
2023-02-20T02:45:57.160Z,16.42
2023-02-20T02:48:31.519Z,17.42
2023-02-20T02:51:06.783Z,15.73
2023-02-20T02:53:33.387Z,12.35
2023-02-20T02:56:19.969Z,17.45
2023-02-20T02:58:48.138Z,18.75
2023-02-20T03:01:16.588Z,12.80
2023-02-20T03:03:45.100Z,14.07
2023-02-20T03:06:36.395Z,16.13
2023-02-20T03:09:08.529Z,15.98
2023-02-20T03:11:37.399Z,18.02
2023-02-20T03:14:28.737Z,19.17
2023-02-20T03:17:12.952Z,15.23
2023-02-20T03:20:06.982Z,15.20
2023-02-20T03:22:39.510Z,14.65
2023-02-20T03:25:11.974Z,11.30
2023-02-20T03:27:44.965Z,16.80
2023-02-20T03:30:23.398Z,13.02
2023-02-20T03:33:13.890Z,13.73
2023-02-20T03:36:02.750Z,10.40
2023-02-20T03:38:48.669Z,8.88
2023-02-20T03:41:34.895Z,14.90
2023-02-20T03:44:03.075Z,12.98
2023-02-20T03:46:34.627Z,11.45
2023-02-20T03:49:23.369Z,12.65
2023-02-20T03:51:50.285Z,15.15
2023-02-20T03:54:17.458Z,7.88
2023-02-20T03:56:54.767Z,8.43
2023-02-20T03:59:40.520Z,13.10
2023-02-20T04:02:18.003Z,10.57
2023-02-20T04:04:49.261Z,10.32
2023-02-20T04:07:24.160Z,16.50
2023-02-20T04:09:52.073Z,13.02
2023-02-20T04:12:41.034Z,10.85
2023-02-20T04:15:09.781Z,13.90
2023-02-20T04:17:42.646Z,10.57
2023-02-20T04:20:09.912Z,14.82
2023-02-20T04:22:41.528Z,11.98
2023-02-20T04:25:35.596Z,10.93
2023-02-20T04:28:04.182Z,13.23
2023-02-20T04:30:31.382Z,12.15
2023-02-20T04:32:58.229Z,14.73
2023-02-20T04:35:25.195Z,10.82
2023-02-20T04:37:51.775Z,14.88
2023-02-20T04:40:21.431Z,10.02
2023-02-20T04:42:48.023Z,10.95
2023-02-20T04:45:17.582Z,13.35
2023-02-20T04:47:45.346Z,11.73
2023-02-20T04:50:25.597Z,9.00
2023-02-20T04:52:52.630Z,12.07
2023-02-20T04:55:20.227Z,11.73
2023-02-20T04:57:48.329Z,12.85
2023-02-20T05:00:18.008Z,13.38
2023-02-20T05:02:44.779Z,13.65
2023-02-20T05:05:20.261Z,13.73
2023-02-20T05:07:47.599Z,13.32
2023-02-20T05:10:19.573Z,12.88
2023-02-20T05:12:46.389Z,12.25
2023-02-20T05:15:14.453Z,13.48
2023-02-20T05:17:41.089Z,11.70
2023-02-20T05:20:08.646Z,15.80
2023-02-20T05:22:35.246Z,14.18
2023-02-20T05:25:01.817Z,12.82
2023-02-20T05:27:28.826Z,13.25
2023-02-20T05:29:57.862Z,12.27
2023-02-20T05:32:27.360Z,12.13
2023-02-20T05:34:54.695Z,16.23
2023-02-20T05:37:23.664Z,13.90
2023-02-20T05:39:50.327Z,15.45
2023-02-20T05:42:17.672Z,14.32
2023-02-20T05:44:44.405Z,13.65
2023-02-20T05:47:11.248Z,13.15
2023-02-20T05:49:38.050Z,18.40
2023-02-20T05:52:11.661Z,13.10
2023-02-20T05:54:39.600Z,13.73
2023-02-20T05:57:06.602Z,14.93
2023-02-20T05:59:33.223Z,15.55
2023-02-20T06:02:00.660Z,17.67
2023-02-20T06:04:27.955Z,16.88
2023-02-20T06:06:54.569Z,16.73
2023-02-20T06:09:21.268Z,19.30
2023-02-20T06:11:54.168Z,19.25
2023-02-20T06:14:22.283Z,17.42
2023-02-20T06:16:49.051Z,18.48
2023-02-20T06:19:23.713Z,16.77
2023-02-20T06:21:51.490Z,16.33
2023-02-20T06:24:18.354Z,16.45
2023-02-20T06:26:45.366Z,17.05
2023-02-20T06:29:13.249Z,16.50
2023-02-20T06:31:40.006Z,16.08
2023-02-20T06:34:08.088Z,18.60
2023-02-20T06:36:37.536Z,17.38
2023-02-20T06:39:06.599Z,18.92
2023-02-20T06:41:33.375Z,18.27
2023-02-20T06:44:00.237Z,17.40
2023-02-20T06:46:27.091Z,21.33
2023-02-20T06:48:56.289Z,14.25
2023-02-20T06:51:25.481Z,16.50
2023-02-20T06:53:52.079Z,18.10
2023-02-20T06:56:21.938Z,16.00
2023-02-20T06:58:50.350Z,17.23
2023-02-20T07:01:18.853Z,18.13
2023-02-20T07:03:46.730Z,18.42
2023-02-20T07:06:13.624Z,17.73
2023-02-20T07:08:40.544Z,20.65
2023-02-20T07:11:07.523Z,16.70
2023-02-20T07:13:34.146Z,17.23
2023-02-20T07:16:00.737Z,20.55
2023-02-20T07:18:27.635Z,18.45
2023-02-20T07:20:55.325Z,20.10
2023-02-20T07:23:22.661Z,19.73
2023-02-20T07:25:50.261Z,17.92
2023-02-20T07:28:18.786Z,17.23
2023-02-20T07:30:48.909Z,20.20
2023-02-20T07:33:19.238Z,17.70
2023-02-20T07:35:46.739Z,16.75
2023-02-20T07:38:13.548Z,18.35
2023-02-20T07:40:40.446Z,18.10
2023-02-20T07:43:07.460Z,17.92
2023-02-20T07:45:34.473Z,15.60
2023-02-20T07:48:01.147Z,17.70
2023-02-20T07:50:27.813Z,19.38
2023-02-20T07:52:54.410Z,18.80
2023-02-20T07:55:21.110Z,17.15
2023-02-20T07:57:49.090Z,15.23
2023-02-20T08:00:19.952Z,18.77
2023-02-20T08:02:47.267Z,17.52
2023-02-20T08:05:14.273Z,16.63
2023-02-20T08:07:48.302Z,16.15
2023-02-20T08:10:17.024Z,17.80
2023-02-20T08:12:43.696Z,15.93
2023-02-20T08:15:13.013Z,16.88
2023-02-20T08:17:46.619Z,27.45
2023-02-20T08:20:15.982Z,16.77
2023-02-20T08:22:44.394Z,15.68
2023-02-20T08:25:11.105Z,15.60
2023-02-20T08:27:42.666Z,17.88
2023-02-20T08:30:13.349Z,17.15
2023-02-20T08:32:40.026Z,16.70
2023-02-20T08:35:06.944Z,15.35
2023-02-20T08:37:33.563Z,17.58
2023-02-20T08:40:00.731Z,14.73
2023-02-20T08:42:27.309Z,15.77
2023-02-20T08:44:54.006Z,15.77
2023-02-20T08:47:21.138Z,15.50
2023-02-20T08:49:48.724Z,17.10
2023-02-20T08:52:16.132Z,14.90
2023-02-20T08:54:49.602Z,18.35
2023-02-20T08:57:17.760Z,13.63
2023-02-20T08:59:44.855Z,14.55
2023-02-20T09:02:24.548Z,17.67
2023-02-20T09:04:51.231Z,16.35
2023-02-20T09:07:17.808Z,20.48
2023-02-20T09:09:44.407Z,18.58
2023-02-20T09:12:11.167Z,15.80
2023-02-20T09:14:38.262Z,17.73
2023-02-20T09:17:05.724Z,18.50
2023-02-20T09:19:32.883Z,15.82
2023-02-20T09:21:59.746Z,17.73
2023-02-20T09:24:32.149Z,18.88
2023-02-20T09:26:58.902Z,14.90
2023-02-20T09:29:25.590Z,21.55
2023-02-20T09:31:52.365Z,18.23
2023-02-20T09:34:19.512Z,14.70
2023-02-20T09:36:46.301Z,19.08
2023-02-20T09:39:13.032Z,16.58
2023-02-20T09:42:01.115Z,16.75
2023-02-20T09:44:52.144Z,17.17
2023-02-20T09:47:28.046Z,17.60
2023-02-20T09:49:59.928Z,14.80
2023-02-20T09:52:29.498Z,19.92
2023-02-20T09:55:05.783Z,15.20
2023-02-20T09:57:36.432Z,17.52
2023-02-20T10:00:27.364Z,16.23
2023-02-20T10:03:05.357Z,17.10
2023-02-20T10:05:32.901Z,15.43
2023-02-20T10:07:59.514Z,17.70
2023-02-20T10:10:29.563Z,15.05
2023-02-20T10:13:38.383Z,18.38
2023-02-20T10:16:32.882Z,17.27
2023-02-20T10:19:20.523Z,14.13
2023-02-20T10:21:58.330Z,17.42
2023-02-20T10:24:46.702Z,14.38
2023-02-20T10:27:46.344Z,14.85
2023-02-20T10:30:20.170Z,17.45
2023-02-20T10:33:04.861Z,15.88
2023-02-20T10:35:38.125Z,20.55
2023-02-20T10:38:10.409Z,18.60
2023-02-20T10:40:39.317Z,17.48
2023-02-20T10:43:20.259Z,19.38
2023-02-20T10:45:46.883Z,13.23
2023-02-20T10:48:15.445Z,13.18
2023-02-20T10:50:45.726Z,14.30
2023-02-20T10:53:26.970Z,15.52
2023-02-20T10:56:15.638Z,18.90
2023-02-20T10:58:49.508Z,16.13
2023-02-20T11:01:22.941Z,16.73
2023-02-20T11:04:03.701Z,15.23
2023-02-20T11:06:44.149Z,18.10
2023-02-20T11:09:10.801Z,16.95
2023-02-20T11:11:45.905Z,15.48
2023-02-20T11:14:47.116Z,16.80
2023-02-20T11:17:15.952Z,20.38
2023-02-20T11:19:45.660Z,20.83
2023-02-20T11:22:12.785Z,18.55
2023-02-20T11:24:43.583Z,18.10
2023-02-20T11:27:22.478Z,19.98
2023-02-20T11:30:01.885Z,15.95
2023-02-20T11:32:33.104Z,15.70
2023-02-20T11:35:17.650Z,16.88
2023-02-20T11:37:55.254Z,14.80
2023-02-20T11:40:33.702Z,20.33
2023-02-20T11:43:26.430Z,18.17
2023-02-20T11:46:09.699Z,16.95
2023-02-20T11:48:38.101Z,16.23
2023-02-20T11:51:06.454Z,19.20
2023-02-20T11:53:34.181Z,15.52
2023-02-20T11:56:14.175Z,15.93
2023-02-20T11:58:42.215Z,15.52
2023-02-20T12:01:32.239Z,23.45
2023-02-20T12:04:00.697Z,19.50
2023-02-20T12:06:33.138Z,21.77
2023-02-20T12:09:02.347Z,16.65
2023-02-20T12:11:29.544Z,17.73
2023-02-20T12:13:58.774Z,14.43
2023-02-20T12:16:25.611Z,19.52
2023-02-20T12:19:28.685Z,14.65
2023-02-20T12:21:55.279Z,19.85
2023-02-20T12:24:30.751Z,19.42
2023-02-20T12:27:00.745Z,17.42
2023-02-20T12:29:52.091Z,14.70
2023-02-20T12:32:51.810Z,17.00
2023-02-20T12:35:30.497Z,14.77
2023-02-20T12:38:21.772Z,16.88
2023-02-20T12:41:04.275Z,16.02
2023-02-20T12:44:12.822Z,17.00
2023-02-20T12:46:43.046Z,13.55
2023-02-20T12:49:41.990Z,16.83
2023-02-20T12:52:47.296Z,15.32
2023-02-20T12:55:44.457Z,14.75
2023-02-20T12:58:29.611Z,15.57
2023-02-20T13:01:09.644Z,15.07
2023-02-20T13:03:56.015Z,19.17
2023-02-20T13:06:48.161Z,13.70
2023-02-20T13:09:14.704Z,16.10
2023-02-20T13:11:45.794Z,12.57
2023-02-20T13:14:15.505Z,19.58
2023-02-20T13:17:26.920Z,12.90
2023-02-20T13:20:02.647Z,16.65
2023-02-20T13:22:29.288Z,24.88
2023-02-20T13:25:45.133Z,15.35
2023-02-20T13:28:20.606Z,15.38
2023-02-20T13:31:18.534Z,15.63
2023-02-20T13:34:05.576Z,15.52
2023-02-20T13:36:39.868Z,17.42
2023-02-20T13:39:25.169Z,16.48
2023-02-20T13:41:54.668Z,12.13
2023-02-20T13:44:35.915Z,15.38
2023-02-20T13:47:22.214Z,15.13
2023-02-20T13:49:58.384Z,19.63
2023-02-20T13:52:45.306Z,17.40
2023-02-20T13:55:13.128Z,16.15
2023-02-20T13:58:10.293Z,17.88
2023-02-20T14:00:47.297Z,19.23
2023-02-20T14:03:26.314Z,17.85
2023-02-20T14:06:17.294Z,22.23
2023-02-20T14:08:48.630Z,16.42
2023-02-20T14:11:27.069Z,19.52
2023-02-20T14:13:57.780Z,19.80
2023-02-20T14:16:31.827Z,23.42
2023-02-20T14:19:05.743Z,19.98
2023-02-20T14:21:34.880Z,22.40
2023-02-20T14:24:32.185Z,21.33
2023-02-20T14:26:59.356Z,19.67
2023-02-20T14:29:32.605Z,18.08
2023-02-20T14:32:02.340Z,20.80
2023-02-20T14:35:11.285Z,20.60
2023-02-20T14:37:48.032Z,19.45
2023-02-20T14:40:41.543Z,22.10
2023-02-20T14:43:20.557Z,24.17
2023-02-20T14:45:57.648Z,19.88
2023-02-20T14:48:28.327Z,17.02
2023-02-20T14:51:13.673Z,19.92
2023-02-20T14:53:41.393Z,18.63
2023-02-20T14:56:18.432Z,16.52
2023-02-20T14:58:46.152Z,19.85
2023-02-20T15:01:35.183Z,18.40
2023-02-20T15:04:07.015Z,18.08
2023-02-20T15:06:38.559Z,14.50
2023-02-20T15:09:20.897Z,19.50
2023-02-20T15:11:59.130Z,18.17
2023-02-20T15:14:28.572Z,19.10
2023-02-20T15:17:13.219Z,19.75
2023-02-20T15:19:41.653Z,13.60
2023-02-20T15:22:33.577Z,14.68
2023-02-20T15:25:38.787Z,18.90
2023-02-20T15:28:26.831Z,17.50
2023-02-20T15:31:08.661Z,18.70
2023-02-20T15:33:38.082Z,14.35
2023-02-20T15:36:06.212Z,16.00
2023-02-20T15:38:35.495Z,14.07
2023-02-20T15:41:04.247Z,16.67
2023-02-20T15:43:50.717Z,14.90
2023-02-20T15:46:19.155Z,16.88
2023-02-20T15:48:46.315Z,18.85
2023-02-20T15:51:23.101Z,13.52
2023-02-20T15:53:52.523Z,19.58
2023-02-20T15:56:20.287Z,14.45
2023-02-20T15:58:48.312Z,13.18
2023-02-20T16:01:17.042Z,14.32
2023-02-20T16:03:52.295Z,13.20
2023-02-20T16:06:22.687Z,18.15
2023-02-20T16:08:53.393Z,14.30
2023-02-20T16:11:23.056Z,13.25
2023-02-20T16:13:57.723Z,14.55
2023-02-20T16:16:44.918Z,15.40
2023-02-20T16:19:23.932Z,15.70
2023-02-20T16:21:59.204Z,14.85
2023-02-20T16:24:26.664Z,15.27
2023-02-20T16:26:53.764Z,13.63
2023-02-20T16:29:32.175Z,14.50
2023-02-20T16:32:02.009Z,16.92
2023-02-20T16:34:32.314Z,14.25
2023-02-20T16:37:00.004Z,18.45
2023-02-20T16:39:27.522Z,16.00
2023-02-20T16:41:57.707Z,14.85
2023-02-20T16:44:36.847Z,17.05
2023-02-20T16:47:03.744Z,13.80
2023-02-20T16:49:36.899Z,14.98
2023-02-20T16:52:09.296Z,15.48
2023-02-20T16:54:35.878Z,14.90
2023-02-20T16:57:02.429Z,13.75
2023-02-20T16:59:28.990Z,15.48
2023-02-20T17:01:55.631Z,15.43
2023-02-20T17:04:22.951Z,13.30
2023-02-20T17:06:49.752Z,15.90
2023-02-20T17:09:16.315Z,13.93
2023-02-20T17:11:42.860Z,16.33
2023-02-20T17:14:09.465Z,16.92
2023-02-20T17:16:36.137Z,16.38
2023-02-20T17:19:02.777Z,12.30
2023-02-20T17:21:29.363Z,13.95
2023-02-20T17:23:56.107Z,16.23
2023-02-20T17:26:26.382Z,19.83
2023-02-20T17:28:53.443Z,14.23
2023-02-20T17:31:22.071Z,15.50
2023-02-20T17:33:48.802Z,17.25
2023-02-20T17:36:15.613Z,18.77
2023-02-20T17:38:43.023Z,17.33
2023-02-20T17:41:09.636Z,13.38
2023-02-20T17:43:37.674Z,15.38
2023-02-20T17:46:04.428Z,18.92
2023-02-20T17:48:31.023Z,15.00
2023-02-20T17:50:57.604Z,14.60
2023-02-20T17:53:24.225Z,15.05
2023-02-20T17:55:50.813Z,14.43
2023-02-20T17:58:17.527Z,18.30
2023-02-20T18:00:45.461Z,18.23
2023-02-20T18:03:12.105Z,16.08
2023-02-20T18:05:38.742Z,15.23
2023-02-20T18:08:05.428Z,14.88
2023-02-20T18:10:32.074Z,16.67
2023-02-20T18:13:04.730Z,17.88
2023-02-20T18:15:33.371Z,12.95
2023-02-20T18:18:00.987Z,16.90
2023-02-20T18:20:28.233Z,15.73
2023-02-20T18:22:58.989Z,17.23
2023-02-20T18:25:39.081Z,16.38
2023-02-20T18:28:07.985Z,18.23
2023-02-20T18:30:34.799Z,12.30
2023-02-20T18:33:01.958Z,12.57
2023-02-20T18:35:28.826Z,16.10
2023-02-20T18:37:55.444Z,17.00
2023-02-20T18:40:24.028Z,17.77
2023-02-20T18:42:51.490Z,15.20
2023-02-20T18:45:18.744Z,15.98
2023-02-20T18:47:52.738Z,14.90
2023-02-20T18:50:20.642Z,19.35
2023-02-20T18:52:48.391Z,16.33
2023-02-20T18:55:17.529Z,17.05
2023-02-20T18:57:48.957Z,13.07
2023-02-20T19:00:24.366Z,12.95
2023-02-20T19:02:52.976Z,16.65
2023-02-20T19:05:20.423Z,13.77
2023-02-20T19:07:47.813Z,14.57
2023-02-20T19:10:20.829Z,17.52
2023-02-20T19:12:47.781Z,12.52
2023-02-20T19:15:14.937Z,14.80
2023-02-20T19:17:43.675Z,14.57
2023-02-20T19:20:25.729Z,17.25
2023-02-20T19:22:54.254Z,14.48
2023-02-20T19:25:22.058Z,15.93
2023-02-20T19:27:49.125Z,18.00
2023-02-20T19:30:16.208Z,13.75
2023-02-20T19:32:43.381Z,14.25
2023-02-20T19:35:10.869Z,15.13
2023-02-20T19:37:38.758Z,18.08
2023-02-20T19:40:07.409Z,14.98
2023-02-20T19:42:35.097Z,19.33
2023-02-20T19:45:01.782Z,20.75
2023-02-20T19:47:28.522Z,17.98
2023-02-20T19:49:55.204Z,18.70
2023-02-20T19:52:21.805Z,16.90
2023-02-20T19:54:48.406Z,15.95
2023-02-20T19:57:15.328Z,19.17
2023-02-20T19:59:42.589Z,18.40
2023-02-20T20:02:10.349Z,18.73
2023-02-20T20:04:36.979Z,21.88
2023-02-20T20:07:03.739Z,14.88
2023-02-20T20:09:36.699Z,18.70
2023-02-20T20:12:26.194Z,16.50
2023-02-20T20:14:53.154Z,16.48
2023-02-20T20:17:19.798Z,16.77
2023-02-20T20:19:58.479Z,21.20
2023-02-20T20:22:25.395Z,17.73
2023-02-20T20:24:51.976Z,20.67
2023-02-20T20:27:20.685Z,20.92
2023-02-20T20:29:51.140Z,18.58
2023-02-20T20:32:19.248Z,19.95
2023-02-20T20:34:52.509Z,20.55
2023-02-20T20:37:23.838Z,16.55
2023-02-20T20:39:52.362Z,18.98
2023-02-20T20:42:23.476Z,17.63
2023-02-20T20:44:59.087Z,18.35
2023-02-20T20:47:27.937Z,19.27
2023-02-20T20:49:55.223Z,20.00
2023-02-20T20:52:26.563Z,18.60
2023-02-20T20:54:55.056Z,19.33
2023-02-20T20:57:24.060Z,19.73
2023-02-20T20:59:51.587Z,19.85
2023-02-20T21:02:19.551Z,17.25
2023-02-20T21:04:49.269Z,16.90
2023-02-20T21:07:18.588Z,18.58
2023-02-20T21:09:45.646Z,19.45
2023-02-20T21:12:15.081Z,17.33
2023-02-20T21:14:42.930Z,20.02
2023-02-20T21:17:10.948Z,18.23
2023-02-20T21:19:37.585Z,17.58
2023-02-20T21:22:04.762Z,18.33
2023-02-20T21:24:34.204Z,21.08
2023-02-20T21:27:00.810Z,20.60
2023-02-20T21:29:27.396Z,18.52
2023-02-20T21:31:54.023Z,18.52
2023-02-20T21:34:20.987Z,19.30
2023-02-20T21:36:48.011Z,17.85
2023-02-20T21:39:14.663Z,21.13
2023-02-20T21:41:59.898Z,22.83
2023-02-20T21:44:26.530Z,18.52
2023-02-20T21:47:04.133Z,19.83
2023-02-20T21:49:32.592Z,20.10
2023-02-20T21:51:59.232Z,19.70
2023-02-20T21:54:29.066Z,20.00
2023-02-20T21:56:56.316Z,20.23
2023-02-20T21:59:22.876Z,23.83
2023-02-20T22:01:50.129Z,20.48
2023-02-20T22:04:17.235Z,19.90
2023-02-20T22:06:45.644Z,22.90
2023-02-20T22:09:34.172Z,20.02
2023-02-20T22:12:19.453Z,20.63
2023-02-20T22:15:04.764Z,22.40
2023-02-20T22:20:19.082Z,20.42
2023-02-20T22:23:04.466Z,20.65
2023-02-20T22:25:50.173Z,21.83
2023-02-20T22:28:35.506Z,22.20
2023-02-20T22:31:21.864Z,20.60
2023-02-20T22:34:07.255Z,19.60
2023-02-20T22:36:52.772Z,20.63
2023-02-20T22:39:38.746Z,21.88
2023-02-20T22:42:34.380Z,23.33
2023-02-20T22:45:20.275Z,20.73
2023-02-20T22:48:05.740Z,21.25
2023-02-20T22:50:51.296Z,21.38
2023-02-20T22:53:36.645Z,24.45
2023-02-20T22:56:22.060Z,20.98
2023-02-20T22:59:07.472Z,19.98
2023-02-20T23:01:52.920Z,21.98
2023-02-20T23:04:38.435Z,20.50
2023-02-20T23:07:23.738Z,23.80
2023-02-20T23:10:09.077Z,21.23
2023-02-20T23:12:54.480Z,21.20
2023-02-20T23:15:40.132Z,23.05
2023-02-20T23:18:25.399Z,24.10
2023-02-20T23:21:10.706Z,22.75
2023-02-20T23:23:56.071Z,20.27
2023-02-20T23:26:41.295Z,21.42
2023-02-20T23:29:26.750Z,23.58
2023-02-20T23:32:12.079Z,20.80
2023-02-20T23:34:57.440Z,25.65
2023-02-20T23:37:42.773Z,25.17
2023-02-20T23:40:36.530Z,23.85
2023-02-20T23:43:23.961Z,26.88
2023-02-20T23:46:09.445Z,23.95
2023-02-20T23:48:54.745Z,22.15
2023-02-20T23:51:40.253Z,25.48
2023-02-20T23:54:25.807Z,25.25
2023-02-20T23:57:11.318Z,25.05
2023-02-20T23:59:56.659Z,24.55
